createdAt,value
2022-12-24T00:00:12.255Z,17.33
2022-12-24T00:02:39.350Z,17.27
2022-12-24T00:05:07.066Z,17.25
2022-12-24T00:07:33.678Z,17.31
2022-12-24T00:10:00.377Z,17.17
2022-12-24T00:12:27.074Z,17.00
2022-12-24T00:14:53.738Z,16.86
2022-12-24T00:17:20.497Z,17.13
2022-12-24T00:19:47.690Z,16.94
2022-12-24T00:22:14.445Z,17.02
2022-12-24T00:24:41.269Z,17.01
2022-12-24T00:27:08.038Z,17.08
2022-12-24T00:29:34.763Z,17.27
2022-12-24T00:32:01.525Z,17.38
2022-12-24T00:34:28.490Z,17.34
2022-12-24T00:36:55.496Z,17.55
2022-12-24T00:39:22.158Z,17.25
2022-12-24T00:41:48.866Z,17.18
2022-12-24T00:44:15.761Z,17.14
2022-12-24T00:46:42.622Z,17.07
2022-12-24T00:49:12.264Z,17.12
2022-12-24T00:51:39.390Z,17.41
2022-12-24T00:54:07.167Z,17.48
2022-12-24T00:56:34.470Z,17.07
2022-12-24T00:59:01.423Z,17.13
2022-12-24T01:01:28.645Z,17.19
2022-12-24T01:04:14.176Z,17.41
2022-12-24T01:06:41.024Z,17.43
2022-12-24T01:09:08.006Z,17.53
2022-12-24T01:11:34.732Z,17.35
2022-12-24T01:14:01.340Z,17.28
2022-12-24T01:16:28.081Z,17.55
2022-12-24T01:18:54.966Z,17.68
2022-12-24T01:21:21.697Z,17.51
2022-12-24T01:23:49.032Z,17.30
2022-12-24T01:26:15.815Z,17.23
2022-12-24T01:28:42.711Z,17.59
2022-12-24T01:31:18.119Z,17.43
2022-12-24T01:33:46.467Z,17.29
2022-12-24T01:36:14.251Z,17.33
2022-12-24T01:38:41.971Z,17.33
2022-12-24T01:41:37.472Z,16.95
2022-12-24T01:44:23.133Z,16.76
2022-12-24T01:46:52.111Z,17.35
2022-12-24T01:49:19.163Z,17.11
2022-12-24T01:51:54.608Z,17.37
2022-12-24T01:54:27.602Z,17.55
2022-12-24T01:57:01.226Z,17.48
2022-12-24T01:59:29.310Z,17.47
2022-12-24T02:01:56.262Z,17.53
2022-12-24T02:04:36.789Z,17.62
2022-12-24T02:07:04.041Z,17.54
2022-12-24T02:09:30.845Z,17.23
2022-12-24T02:11:57.963Z,17.39
2022-12-24T02:14:26.730Z,17.50
2022-12-24T02:17:12.131Z,17.40
2022-12-24T02:20:17.402Z,17.67
2022-12-24T02:22:58.452Z,17.66
2022-12-24T02:25:49.552Z,17.65
2022-12-24T02:28:34.791Z,17.51
2022-12-24T02:31:08.932Z,17.36
2022-12-24T02:33:43.114Z,17.56
2022-12-24T02:36:15.433Z,17.62
2022-12-24T02:38:51.767Z,17.76
2022-12-24T02:41:26.675Z,17.71
2022-12-24T02:43:56.496Z,17.90
2022-12-24T02:46:27.982Z,17.93
2022-12-24T02:48:56.707Z,17.10
2022-12-24T02:51:25.280Z,17.18
2022-12-24T02:53:52.360Z,17.58
2022-12-24T02:56:40.724Z,17.54
2022-12-24T02:59:45.554Z,17.27
2022-12-24T03:02:40.237Z,16.68
2022-12-24T03:05:34.874Z,16.69
2022-12-24T03:08:16.109Z,17.12
2022-12-24T03:11:01.298Z,17.04
2022-12-24T03:13:28.978Z,17.33
2022-12-24T03:15:55.689Z,17.41
2022-12-24T03:18:27.794Z,17.41
2022-12-24T03:21:00.666Z,17.08
2022-12-24T03:23:28.081Z,17.44
2022-12-24T03:25:55.251Z,17.55
2022-12-24T03:28:26.638Z,17.80
2022-12-24T03:30:53.671Z,17.55
2022-12-24T03:33:21.217Z,17.68
2022-12-24T03:35:47.968Z,17.90
2022-12-24T03:38:14.679Z,17.65
2022-12-24T03:40:41.510Z,17.68
2022-12-24T03:43:08.199Z,17.55
2022-12-24T03:45:34.997Z,17.70
2022-12-24T03:48:01.794Z,17.53
2022-12-24T03:50:28.546Z,17.88
2022-12-24T03:52:55.473Z,17.45
2022-12-24T03:55:22.486Z,17.62
2022-12-24T03:57:49.511Z,17.87
2022-12-24T04:00:16.950Z,17.95
2022-12-24T04:02:43.696Z,17.53
2022-12-24T04:05:19.677Z,17.51
2022-12-24T04:07:46.806Z,17.61
2022-12-24T04:10:14.953Z,17.54
2022-12-24T04:12:41.716Z,17.66
2022-12-24T04:15:08.884Z,17.60
2022-12-24T04:17:35.887Z,17.88
2022-12-24T04:20:02.631Z,17.58
2022-12-24T04:22:29.338Z,17.19
2022-12-24T04:24:56.126Z,17.45
2022-12-24T04:27:28.240Z,17.63
2022-12-24T04:29:56.981Z,17.39
2022-12-24T04:32:26.024Z,17.68
2022-12-24T04:34:52.738Z,17.21
2022-12-24T04:37:19.376Z,17.35
2022-12-24T04:39:46.053Z,17.22
2022-12-24T04:42:12.779Z,17.33
2022-12-24T04:44:39.413Z,17.39
2022-12-24T04:47:06.032Z,17.31
2022-12-24T04:49:32.829Z,17.49
2022-12-24T04:51:59.538Z,17.38
2022-12-24T04:54:26.289Z,17.14
2022-12-24T04:56:53.028Z,17.30
2022-12-24T04:59:19.785Z,17.22
2022-12-24T05:01:46.548Z,17.34
2022-12-24T05:04:13.272Z,17.50
2022-12-24T05:06:39.973Z,17.37
2022-12-24T05:09:06.666Z,17.41
2022-12-24T05:11:33.347Z,17.73
2022-12-24T05:14:00.042Z,17.58
2022-12-24T05:16:27.014Z,17.45
2022-12-24T05:18:53.989Z,17.22
2022-12-24T05:21:23.734Z,17.41
2022-12-24T05:24:10.629Z,17.48
2022-12-24T05:26:44.139Z,17.19
2022-12-24T05:29:14.265Z,17.42
2022-12-24T05:31:42.335Z,17.36
2022-12-24T05:34:10.333Z,17.23
2022-12-24T05:36:37.376Z,17.49
2022-12-24T05:39:07.207Z,17.31
2022-12-24T05:41:36.721Z,17.43
2022-12-24T05:44:03.464Z,17.36
2022-12-24T05:46:30.134Z,17.42
2022-12-24T05:48:56.851Z,17.50
2022-12-24T05:51:23.510Z,17.50
2022-12-24T05:53:51.417Z,17.76
2022-12-24T05:56:22.661Z,17.89
2022-12-24T05:58:49.951Z,17.77
2022-12-24T06:01:16.977Z,17.53
2022-12-24T06:03:43.741Z,17.81
2022-12-24T06:06:13.395Z,17.87
2022-12-24T06:08:41.671Z,17.59
2022-12-24T06:11:10.852Z,17.61
2022-12-24T06:13:38.303Z,17.76
2022-12-24T06:16:07.251Z,17.95
2022-12-24T06:18:35.596Z,17.84
2022-12-24T06:21:03.340Z,17.91
2022-12-24T06:23:32.423Z,17.82
2022-12-24T06:26:01.073Z,17.89
2022-12-24T06:28:29.416Z,17.92
2022-12-24T06:31:02.338Z,17.67
2022-12-24T06:33:30.698Z,17.77
2022-12-24T06:35:57.421Z,17.68
2022-12-24T06:38:24.394Z,17.46
2022-12-24T06:40:51.198Z,17.62
2022-12-24T06:43:17.987Z,17.42
2022-12-24T06:45:46.693Z,17.35
2022-12-24T06:48:14.575Z,17.44
2022-12-24T06:50:41.661Z,17.43
2022-12-24T06:53:08.901Z,17.44
2022-12-24T06:55:35.661Z,17.54
2022-12-24T06:58:03.704Z,17.43
2022-12-24T07:00:30.481Z,17.25
2022-12-24T07:02:57.129Z,17.55
2022-12-24T07:05:23.880Z,17.36
2022-12-24T07:07:50.628Z,17.22
2022-12-24T07:10:18.451Z,17.39
2022-12-24T07:12:45.719Z,17.21
2022-12-24T07:15:13.446Z,17.23
2022-12-24T07:17:40.282Z,17.26
2022-12-24T07:20:10.122Z,17.41
2022-12-24T07:22:36.844Z,17.22
2022-12-24T07:25:03.766Z,17.31
2022-12-24T07:27:30.781Z,17.33
2022-12-24T07:29:57.452Z,17.33
2022-12-24T07:32:24.133Z,17.41
2022-12-24T07:34:50.797Z,17.22
2022-12-24T07:37:17.604Z,16.97
2022-12-24T07:39:44.951Z,17.25
2022-12-24T07:42:11.563Z,17.27
2022-12-24T07:44:38.982Z,17.49
2022-12-24T07:47:05.748Z,17.55
2022-12-24T07:49:32.509Z,17.46
2022-12-24T07:51:59.216Z,17.11
2022-12-24T07:54:25.860Z,17.13
2022-12-24T07:56:52.483Z,17.41
2022-12-24T07:59:19.188Z,17.64
2022-12-24T08:01:45.996Z,16.98
2022-12-24T08:04:13.339Z,17.43
2022-12-24T08:06:40.197Z,17.22
2022-12-24T08:09:06.915Z,17.45
2022-12-24T08:11:33.709Z,17.66
2022-12-24T08:14:00.362Z,17.71
2022-12-24T08:16:27.063Z,17.88
2022-12-24T08:18:53.803Z,17.78
2022-12-24T08:21:20.494Z,17.78
2022-12-24T08:23:47.519Z,17.65
2022-12-24T08:26:14.147Z,17.55
2022-12-24T08:28:41.175Z,17.80
2022-12-24T08:31:08.115Z,17.49
2022-12-24T08:33:35.198Z,17.39
2022-12-24T08:36:02.885Z,17.51
2022-12-24T08:38:29.829Z,17.88
2022-12-24T08:40:56.670Z,18.18
2022-12-24T08:43:25.453Z,17.97
2022-12-24T08:45:52.907Z,17.70
2022-12-24T08:48:20.044Z,18.30
2022-12-24T08:50:46.818Z,18.65
2022-12-24T08:53:13.835Z,18.64
2022-12-24T08:55:40.606Z,18.53
2022-12-24T08:58:07.376Z,18.65
2022-12-24T09:00:34.106Z,18.74
2022-12-24T09:03:00.968Z,18.64
2022-12-24T09:05:27.812Z,18.69
2022-12-24T09:07:54.478Z,18.75
2022-12-24T09:10:21.409Z,18.78
2022-12-24T09:12:48.120Z,18.61
2022-12-24T09:15:14.892Z,18.56
2022-12-24T09:17:41.620Z,18.68
2022-12-24T09:20:09.479Z,18.67
2022-12-24T09:22:38.021Z,18.58
2022-12-24T09:25:06.266Z,18.33
2022-12-24T09:27:33.239Z,18.49
2022-12-24T09:29:59.985Z,18.87
2022-12-24T09:32:26.719Z,18.98
2022-12-24T09:34:53.737Z,18.82
2022-12-24T09:37:20.750Z,18.98
2022-12-24T09:39:47.749Z,19.24
2022-12-24T09:42:32.901Z,19.24
2022-12-24T09:45:05.328Z,19.04
2022-12-24T09:47:39.851Z,19.29
2022-12-24T09:50:30.547Z,19.12
2022-12-24T09:53:00.524Z,19.19
2022-12-24T09:55:32.450Z,19.03
2022-12-24T09:58:02.173Z,18.98
2022-12-24T10:00:33.201Z,18.85
2022-12-24T10:02:59.998Z,19.18
2022-12-24T10:05:39.540Z,19.13
2022-12-24T10:08:21.540Z,19.58
2022-12-24T10:10:54.218Z,19.38
2022-12-24T10:13:32.898Z,18.90
2022-12-24T10:16:03.283Z,18.94
2022-12-24T10:18:47.284Z,18.95
2022-12-24T10:21:33.463Z,19.03
2022-12-24T10:24:24.884Z,18.91
2022-12-24T10:27:01.043Z,18.70
2022-12-24T10:29:31.359Z,18.65
2022-12-24T10:32:11.046Z,18.74
2022-12-24T10:35:02.221Z,18.72
2022-12-24T10:37:30.175Z,18.97
2022-12-24T10:40:02.608Z,19.00
2022-12-24T10:42:50.109Z,19.11
2022-12-24T10:45:20.627Z,19.24
2022-12-24T10:47:52.478Z,19.21
2022-12-24T10:50:29.758Z,18.63
2022-12-24T10:53:13.281Z,18.55
2022-12-24T10:55:40.233Z,18.48
2022-12-24T10:58:15.408Z,18.28
2022-12-24T11:00:42.473Z,18.36
2022-12-24T11:03:12.191Z,18.41
2022-12-24T11:05:40.101Z,18.72
2022-12-24T11:08:20.133Z,18.56
2022-12-24T11:10:58.083Z,18.53
2022-12-24T11:13:37.445Z,18.69
2022-12-24T11:16:05.553Z,18.59
2022-12-24T11:18:36.494Z,18.29
2022-12-24T11:21:04.939Z,18.41
2022-12-24T11:23:31.737Z,18.58
2022-12-24T11:25:59.125Z,19.07
2022-12-24T11:28:29.103Z,19.38
2022-12-24T11:31:21.132Z,19.43
2022-12-24T11:33:51.018Z,19.48
2022-12-24T11:36:22.879Z,19.20
2022-12-24T11:38:57.813Z,19.25
2022-12-24T11:41:26.250Z,19.28
2022-12-24T11:44:03.676Z,19.32
2022-12-24T11:46:47.067Z,18.90
2022-12-24T11:49:19.673Z,19.22
2022-12-24T11:52:20.948Z,19.64
2022-12-24T11:54:59.783Z,20.17
2022-12-24T11:57:34.660Z,19.56
2022-12-24T12:00:01.383Z,19.50
2022-12-24T12:02:37.312Z,19.30
2022-12-24T12:05:16.362Z,19.72
2022-12-24T12:07:47.110Z,19.15
2022-12-24T12:10:19.762Z,18.85
2022-12-24T12:13:15.758Z,18.57
2022-12-24T12:16:12.455Z,18.65
2022-12-24T12:18:42.169Z,18.59
2022-12-24T12:21:18.101Z,18.23
2022-12-24T12:23:52.425Z,18.67
2022-12-24T12:26:28.800Z,19.23
2022-12-24T12:29:04.353Z,19.20
2022-12-24T12:31:37.035Z,18.96
2022-12-24T12:34:11.759Z,18.91
2022-12-24T12:36:51.587Z,18.85
2022-12-24T12:39:18.429Z,18.61
2022-12-24T12:42:09.522Z,18.79
2022-12-24T12:45:06.074Z,18.58
2022-12-24T12:47:38.778Z,18.85
2022-12-24T12:50:14.816Z,19.02
2022-12-24T12:52:50.484Z,18.92
2022-12-24T12:55:38.625Z,19.05
2022-12-24T12:58:15.924Z,18.77
2022-12-24T13:00:47.321Z,18.86
2022-12-24T13:03:52.680Z,18.64
2022-12-24T13:07:10.570Z,18.84
2022-12-24T13:09:46.057Z,19.19
2022-12-24T13:12:39.831Z,19.53
2022-12-24T13:15:24.399Z,19.42
2022-12-24T13:18:09.406Z,19.77
2022-12-24T13:20:42.107Z,20.14
2022-12-24T13:23:22.128Z,20.28
2022-12-24T13:25:57.629Z,20.14
2022-12-24T13:28:24.481Z,20.57
2022-12-24T13:31:24.521Z,20.46
2022-12-24T13:33:53.944Z,20.66
2022-12-24T13:36:21.705Z,20.75
2022-12-24T13:38:53.634Z,20.90
2022-12-24T13:41:41.357Z,20.68
2022-12-24T13:44:13.002Z,20.35
2022-12-24T13:47:03.250Z,20.21
2022-12-24T13:49:42.647Z,19.71
2022-12-24T13:52:12.601Z,19.41
2022-12-24T13:54:51.439Z,19.01
2022-12-24T13:57:36.510Z,18.70
2022-12-24T14:00:29.276Z,18.99
2022-12-24T14:03:14.721Z,19.16
2022-12-24T14:05:44.855Z,19.42
2022-12-24T14:08:27.571Z,19.29
2022-12-24T14:11:09.734Z,18.86
2022-12-24T14:13:39.250Z,19.14
2022-12-24T14:16:11.931Z,19.11
2022-12-24T14:18:40.826Z,18.95
2022-12-24T14:21:15.512Z,19.18
2022-12-24T14:23:54.642Z,19.05
2022-12-24T14:26:35.420Z,18.71
2022-12-24T14:29:44.547Z,18.37
2022-12-24T14:32:16.201Z,18.69
2022-12-24T14:34:43.742Z,18.43
2022-12-24T14:37:15.776Z,18.52
2022-12-24T14:39:46.619Z,18.69
2022-12-24T14:42:51.278Z,18.76
2022-12-24T14:45:50.107Z,18.68
2022-12-24T14:48:36.348Z,18.63
2022-12-24T14:51:18.353Z,18.64
2022-12-24T14:54:20.068Z,18.43
2022-12-24T14:56:47.074Z,18.55
2022-12-24T14:59:19.506Z,18.60
2022-12-24T15:01:46.713Z,18.55
2022-12-24T15:04:18.165Z,18.33
2022-12-24T15:06:53.656Z,18.37
2022-12-24T15:09:26.077Z,18.35
2022-12-24T15:11:56.160Z,18.70
2022-12-24T15:14:25.132Z,18.48
2022-12-24T15:16:58.776Z,18.38
2022-12-24T15:19:37.743Z,18.33
2022-12-24T15:22:14.745Z,18.51
2022-12-24T15:24:46.474Z,18.23
2022-12-24T15:27:25.132Z,17.95
2022-12-24T15:29:56.103Z,18.44
2022-12-24T15:32:23.092Z,18.70
2022-12-24T15:34:52.701Z,18.80
2022-12-24T15:37:23.063Z,18.69
2022-12-24T15:40:10.779Z,18.80
2022-12-24T15:42:42.392Z,18.83
2022-12-24T15:45:27.184Z,18.89
2022-12-24T15:48:01.541Z,18.71
2022-12-24T15:50:33.903Z,18.79
2022-12-24T15:53:21.063Z,18.80
2022-12-24T15:56:27.481Z,18.49
2022-12-24T15:59:31.382Z,18.53
2022-12-24T16:02:27.387Z,18.30
2022-12-24T16:04:54.327Z,18.31
2022-12-24T16:07:25.564Z,18.48
2022-12-24T16:09:52.387Z,18.53
2022-12-24T16:12:23.412Z,18.46
2022-12-24T16:14:57.559Z,18.39
2022-12-24T16:17:26.808Z,18.59
2022-12-24T16:19:56.908Z,18.64
2022-12-24T16:22:34.900Z,18.59
2022-12-24T16:25:23.675Z,18.79
2022-12-24T16:27:50.630Z,18.77
2022-12-24T16:30:18.296Z,18.70
2022-12-24T16:32:46.331Z,18.72
2022-12-24T16:35:27.935Z,18.80
2022-12-24T16:37:55.474Z,18.78
2022-12-24T16:40:27.277Z,18.84
2022-12-24T16:43:15.333Z,18.84
2022-12-24T16:45:43.844Z,18.87
2022-12-24T16:48:19.000Z,18.94
2022-12-24T16:50:45.762Z,18.63
2022-12-24T16:53:17.750Z,18.77
2022-12-24T16:55:45.700Z,18.87
2022-12-24T16:58:13.623Z,18.88
2022-12-24T17:00:40.766Z,18.78
2022-12-24T17:03:07.854Z,18.90
2022-12-24T17:05:38.802Z,18.89
2022-12-24T17:08:06.253Z,18.72
2022-12-24T17:10:33.247Z,18.82
2022-12-24T17:13:00.890Z,18.75
2022-12-24T17:15:28.062Z,18.75
2022-12-24T17:17:55.028Z,18.84
2022-12-24T17:20:24.447Z,18.82
2022-12-24T17:22:52.038Z,18.84
2022-12-24T17:25:18.977Z,18.87
2022-12-24T17:27:45.774Z,18.91
2022-12-24T17:30:12.565Z,19.05
2022-12-24T17:32:39.670Z,18.94
2022-12-24T17:35:07.327Z,19.07
2022-12-24T17:37:34.096Z,18.89
2022-12-24T17:40:00.922Z,18.85
2022-12-24T17:42:27.714Z,18.85
2022-12-24T17:44:54.406Z,18.86
2022-12-24T17:47:21.109Z,18.90
2022-12-24T17:49:47.740Z,18.88
2022-12-24T17:52:14.447Z,18.91
2022-12-24T17:54:41.068Z,18.94
2022-12-24T17:57:07.782Z,18.90
2022-12-24T17:59:34.722Z,18.93
2022-12-24T18:02:01.541Z,18.60
2022-12-24T18:04:28.324Z,18.45
2022-12-24T18:07:01.685Z,18.41
2022-12-24T18:09:29.525Z,18.47
2022-12-24T18:11:56.245Z,18.44
2022-12-24T18:14:22.971Z,18.43
2022-12-24T18:16:49.893Z,18.43
2022-12-24T18:19:16.717Z,18.41
2022-12-24T18:21:43.673Z,18.36
2022-12-24T18:24:12.391Z,18.30
2022-12-24T18:26:39.328Z,18.47
2022-12-24T18:29:08.519Z,18.22
2022-12-24T18:31:35.951Z,18.22
2022-12-24T18:34:05.820Z,18.26
2022-12-24T18:36:33.023Z,18.27
2022-12-24T18:38:59.737Z,18.32
2022-12-24T18:41:29.400Z,18.36
2022-12-24T18:43:56.965Z,18.39
2022-12-24T18:46:26.558Z,18.34
2022-12-24T18:48:54.708Z,18.37
2022-12-24T18:51:23.360Z,18.36
2022-12-24T18:53:51.141Z,18.37
2022-12-24T18:56:20.864Z,18.47
2022-12-24T18:58:48.557Z,18.51
2022-12-24T19:01:20.923Z,18.52
2022-12-24T19:03:49.123Z,18.58
2022-12-24T19:06:16.619Z,18.72
2022-12-24T19:09:00.755Z,18.74
2022-12-24T19:11:30.906Z,18.65
2022-12-24T19:13:58.240Z,18.79
2022-12-24T19:16:25.844Z,18.71
2022-12-24T19:18:52.534Z,18.74
2022-12-24T19:21:19.347Z,18.66
2022-12-24T19:23:47.248Z,18.77
2022-12-24T19:26:16.082Z,18.76
2022-12-24T19:28:44.767Z,18.67
2022-12-24T19:31:14.554Z,18.65
2022-12-24T19:33:44.213Z,18.60
2022-12-24T19:36:14.250Z,18.61
2022-12-24T19:38:41.582Z,18.60
2022-12-24T19:41:13.336Z,18.49
2022-12-24T19:43:42.496Z,18.50
2022-12-24T19:46:10.687Z,18.54
2022-12-24T19:48:38.587Z,18.47
2022-12-24T19:51:08.896Z,18.48
2022-12-24T19:53:36.649Z,18.69
2022-12-24T19:56:04.249Z,18.92
2022-12-24T19:58:32.648Z,18.74
2022-12-24T20:01:15.221Z,18.80
2022-12-24T20:03:44.414Z,18.76
2022-12-24T20:06:12.503Z,18.83
2022-12-24T20:08:39.768Z,18.87
2022-12-24T20:11:08.393Z,18.88
2022-12-24T20:13:35.995Z,18.85
2022-12-24T20:16:08.451Z,18.91
2022-12-24T20:18:35.438Z,18.94
2022-12-24T20:21:04.575Z,18.99
2022-12-24T20:23:31.574Z,18.95
2022-12-24T20:26:00.235Z,18.86
2022-12-24T20:28:28.175Z,19.01
2022-12-24T20:30:55.595Z,19.12
2022-12-24T20:33:22.514Z,18.78
2022-12-24T20:35:49.258Z,18.64
2022-12-24T20:38:16.646Z,18.82
2022-12-24T20:40:44.702Z,18.71
2022-12-24T20:43:12.675Z,18.74
2022-12-24T20:45:39.422Z,18.74
2022-12-24T20:48:06.607Z,18.61
2022-12-24T20:50:33.571Z,18.49
2022-12-24T20:53:00.258Z,18.57
2022-12-24T20:55:26.921Z,18.48
2022-12-24T20:57:53.646Z,18.54
2022-12-24T21:00:20.908Z,18.51
2022-12-24T21:02:47.840Z,18.46
2022-12-24T21:05:15.276Z,18.61
2022-12-24T21:07:43.506Z,18.49
2022-12-24T21:10:12.315Z,18.34
2022-12-24T21:12:58.888Z,18.32
2022-12-24T21:15:39.533Z,18.12
2022-12-24T21:18:11.711Z,18.03
2022-12-24T21:20:40.383Z,18.04
2022-12-24T21:23:07.288Z,18.09
2022-12-24T21:25:34.196Z,18.01
2022-12-24T21:28:01.328Z,18.06
2022-12-24T21:30:28.336Z,17.89
2022-12-24T21:32:55.175Z,17.82
2022-12-24T21:35:21.895Z,17.86
2022-12-24T21:37:48.546Z,18.07
2022-12-24T21:40:15.436Z,18.03
2022-12-24T21:42:42.165Z,17.97
2022-12-24T21:45:09.635Z,17.98
2022-12-24T21:47:38.104Z,17.99
2022-12-24T21:50:28.243Z,17.96
2022-12-24T21:53:17.444Z,17.97
2022-12-24T21:55:44.285Z,18.11
2022-12-24T21:58:10.968Z,18.10
2022-12-24T22:00:37.658Z,18.10
2022-12-24T22:03:04.755Z,18.15
2022-12-24T22:05:34.076Z,18.11
2022-12-24T22:08:19.295Z,18.13
2022-12-24T22:11:04.697Z,17.93
2022-12-24T22:13:32.072Z,18.00
2022-12-24T22:15:58.910Z,18.07
2022-12-24T22:18:26.422Z,18.11
2022-12-24T22:20:53.138Z,18.03
2022-12-24T22:23:20.096Z,18.07
2022-12-24T22:25:47.260Z,18.06
2022-12-24T22:28:14.177Z,18.12
2022-12-24T22:30:42.641Z,18.05
2022-12-24T22:33:10.090Z,18.03
2022-12-24T22:35:39.514Z,17.98
2022-12-24T22:38:08.126Z,17.99
2022-12-24T22:40:34.832Z,17.95
2022-12-24T22:43:01.513Z,17.98
2022-12-24T22:45:28.278Z,17.96
2022-12-24T22:47:55.420Z,17.99
2022-12-24T22:50:23.519Z,18.00
2022-12-24T22:52:50.239Z,17.80
2022-12-24T22:55:16.920Z,17.76
2022-12-24T22:57:43.664Z,17.80
2022-12-24T23:00:17.781Z,17.74
2022-12-24T23:02:44.586Z,17.65
2022-12-24T23:05:14.653Z,17.73
2022-12-24T23:07:41.774Z,17.56
2022-12-24T23:10:08.860Z,17.66
2022-12-24T23:12:54.279Z,17.64
2022-12-24T23:15:20.955Z,17.68
2022-12-24T23:17:49.103Z,17.53
2022-12-24T23:20:16.292Z,17.42
2022-12-24T23:22:43.111Z,17.46
2022-12-24T23:25:10.057Z,17.37
2022-12-24T23:27:36.711Z,17.44
2022-12-24T23:30:03.997Z,17.61
2022-12-24T23:32:30.609Z,17.64
2022-12-24T23:34:57.294Z,17.62
2022-12-24T23:37:27.040Z,17.67
2022-12-24T23:39:57.792Z,17.72
2022-12-24T23:42:24.499Z,17.75
2022-12-24T23:44:51.407Z,17.75
2022-12-24T23:47:18.776Z,17.65
2022-12-24T23:49:45.515Z,17.68
2022-12-24T23:52:12.554Z,17.66
2022-12-24T23:54:39.301Z,17.70
2022-12-24T23:57:05.965Z,17.67
2022-12-24T23:59:34.073Z,17.56
